Terminal Aerodrome Forecast
Issued by NWS

Home | Current Version | Previous Version | Text Only | Print | Product List | Glossary On
Versions: 1 2 3 4 5 6 7 8 9 10 11 12 13 14 15 16 17 18 19 20 21 22 23 24 25 26 27 28 29 30 31 32 33 34 35 36 37
000
FTAK31 PANC 061143
TAFACD
TAF
PACD 061143Z 0612/0712 18008KT P6SM SCT015 OVC025
      TEMPO 0612/0614 SCT025 OVC100
     FM061600 18014G24KT 6SM -RA SCT008 BKN015
     FM062000 20020G32KT 4SM -RA SCT004 OVC008
     FM070400 25012G22KT 4SM -RA SCT004 OVC008
     FM071000 26012G22KT P6SM -SHRA OVC025=

USA.gov is the U.S. government's official web portal to all federal, state and local government web resources and services.